Terminal Aerodrome Forecast
Issued by NWS

Home | Current Version | Previous Version | Text Only | Print | Product List | Glossary On
Versions: 1 2 3 4 5 6 7 8 9 10 11 12 13 14 15 16 17 18 19 20 21 22 23 24 25 26 27 28 29 30 31 32 33 34 35 36
000
FTUS43 KDTX 241120
TAFYIP
TAF
KYIP 241120Z 2412/2512 12005KT P6SM -SHRA SCT050 OVC120
     FM241300 16007KT P6SM -SHRA BKN040 OVC080
      TEMPO 2415/2419 2SM TSRA OVC035CB
     FM241900 22012G20KT P6SM SCT050 BKN100
     FM250100 21007KT P6SM BKN100 OVC250
     FM250500 21007KT P6SM -SHRA OVC040
     FM251000 24008KT 5SM BR SCT020 BKN150=

USA.gov is the U.S. government's official web portal to all federal, state and local government web resources and services.